createdAt,value
2019-06-01T00:00:21.158Z,76.50
2019-06-01T00:02:56.020Z,76.60
2019-06-01T00:05:19.983Z,76.90
2019-06-01T00:07:48.993Z,78.90
2019-06-01T00:10:17.745Z,77.10
2019-06-01T00:12:47.632Z,78.10
2019-06-01T00:15:16.806Z,78.10
2019-06-01T00:17:48.002Z,78.20
2019-06-01T00:20:16.620Z,78.40
2019-06-01T00:22:45.520Z,78.50
2019-06-01T00:25:16.131Z,78.60
2019-06-01T00:27:46.731Z,79.00
2019-06-01T00:30:26.693Z,79.90
2019-06-01T00:32:47.213Z,79.10
2019-06-01T00:35:16.155Z,79.10
2019-06-01T00:37:45.638Z,79.50
2019-06-01T00:40:14.478Z,79.30
2019-06-01T00:42:44.029Z,80.40
2019-06-01T00:45:12.651Z,79.80
2019-06-01T00:47:42.672Z,80.10
2019-06-01T00:50:11.460Z,80.90
2019-06-01T00:52:40.173Z,80.60
2019-06-01T00:55:08.823Z,80.70
2019-06-01T00:57:37.609Z,81.20
2019-06-01T01:00:06.843Z,81.30
2019-06-01T01:02:35.910Z,81.60
2019-06-01T01:05:14.757Z,82.10
2019-06-01T01:07:44.546Z,82.20
2019-06-01T01:10:13.705Z,82.70
2019-06-01T01:13:00.319Z,83.00
2019-06-01T01:15:31.055Z,83.10
2019-06-01T01:18:00.102Z,83.60
2019-06-01T01:20:29.037Z,83.90
2019-06-01T01:22:57.617Z,84.30
2019-06-01T01:25:28.196Z,84.50
2019-06-01T01:27:59.319Z,85.40
2019-06-01T01:30:28.072Z,85.90
2019-06-01T01:32:59.083Z,85.90
2019-06-01T01:35:27.556Z,85.90
2019-06-01T01:37:58.160Z,85.70
2019-06-01T01:40:27.862Z,85.90
2019-06-01T01:42:56.625Z,86.30
2019-06-01T01:45:25.552Z,86.80
2019-06-01T01:47:55.078Z,86.70
2019-06-01T01:50:26.970Z,86.60
2019-06-01T01:52:56.824Z,87.00
2019-06-01T01:55:26.272Z,87.90
2019-06-01T01:57:55.489Z,87.80
2019-06-01T02:00:41.010Z,88.20
2019-06-01T02:03:13.306Z,88.30
2019-06-01T02:05:42.513Z,88.30
2019-06-01T02:08:11.591Z,88.80
2019-06-01T02:10:40.695Z,88.90
2019-06-01T02:13:09.483Z,88.80
2019-06-01T02:15:41.071Z,89.00
2019-06-01T02:18:09.930Z,89.20
2019-06-01T02:20:38.277Z,89.40
2019-06-01T02:23:06.979Z,89.70
2019-06-01T02:25:37.056Z,89.80
2019-06-01T02:28:06.216Z,90.80
2019-06-01T02:30:35.196Z,89.90
2019-06-01T02:33:04.819Z,90.00
2019-06-01T02:35:33.701Z,90.10
2019-06-01T02:38:03.169Z,90.20
2019-06-01T02:40:32.985Z,90.40
2019-06-01T02:43:03.691Z,90.30
2019-06-01T02:45:33.076Z,90.50
2019-06-01T02:48:03.668Z,90.50
2019-06-01T02:50:32.390Z,90.40
2019-06-01T02:53:01.801Z,90.60
2019-06-01T02:55:30.331Z,90.40
2019-06-01T02:58:00.335Z,90.60
2019-06-01T03:01:56.705Z,90.70
2019-06-01T03:04:15.717Z,90.60
2019-06-01T03:06:44.407Z,90.90
2019-06-01T03:09:13.292Z,91.10
2019-06-01T03:11:42.298Z,91.20
2019-06-01T03:14:12.297Z,91.20
2019-06-01T03:16:42.226Z,91.40
2019-06-01T03:19:12.765Z,92.40
2019-06-01T03:21:43.961Z,91.90
2019-06-01T03:24:13.265Z,92.90
2019-06-01T03:26:46.389Z,92.10
2019-06-01T03:29:19.248Z,92.10
2019-06-01T03:31:48.417Z,92.00
2019-06-01T03:34:17.024Z,92.00
2019-06-01T03:36:45.826Z,92.00
2019-06-01T03:39:14.503Z,92.10
2019-06-01T03:41:43.213Z,92.00
2019-06-01T03:44:13.026Z,92.00
2019-06-01T03:46:41.785Z,92.00
2019-06-01T03:49:11.612Z,92.10
2019-06-01T03:51:40.227Z,92.10
2019-06-01T03:54:10.123Z,92.70
2019-06-01T03:56:38.982Z,92.00
2019-06-01T03:59:09.328Z,91.90
2019-06-01T04:01:37.808Z,91.70
2019-06-01T04:04:07.152Z,91.50
2019-06-01T04:06:35.895Z,91.40
2019-06-01T04:09:07.744Z,91.40
2019-06-01T04:11:36.682Z,91.50
2019-06-01T04:14:05.734Z,91.40
2019-06-01T04:16:34.664Z,91.50
2019-06-01T04:19:06.000Z,91.40
2019-06-01T04:21:35.112Z,91.50
2019-06-01T04:24:04.053Z,91.40
2019-06-01T04:26:32.757Z,91.50
2019-06-01T04:29:04.877Z,91.20
2019-06-01T04:31:35.840Z,91.20
2019-06-01T04:34:04.587Z,91.20
2019-06-01T04:36:33.317Z,91.10
2019-06-01T04:39:03.565Z,91.20
2019-06-01T04:41:32.247Z,91.40
2019-06-01T04:44:02.010Z,91.60
2019-06-01T04:46:30.527Z,91.50
2019-06-01T04:48:59.038Z,91.50
2019-06-01T04:51:27.558Z,91.30
2019-06-01T04:53:56.602Z,91.20
2019-06-01T04:56:25.595Z,91.10
2019-06-01T04:58:54.400Z,91.00
2019-06-01T05:01:22.992Z,90.90
2019-06-01T05:03:51.665Z,90.80
2019-06-01T05:06:20.516Z,90.60
2019-06-01T05:08:49.073Z,90.50
2019-06-01T05:11:17.504Z,90.30
2019-06-01T05:13:46.400Z,90.30
2019-06-01T05:16:16.471Z,90.30
2019-06-01T05:18:45.055Z,90.30
2019-06-01T05:21:15.198Z,90.40
2019-06-01T05:23:43.898Z,89.90
2019-06-01T05:26:13.119Z,89.60
2019-06-01T05:28:41.897Z,89.20
2019-06-01T05:31:19.469Z,88.70
2019-06-01T05:33:45.420Z,88.50
2019-06-01T05:36:14.290Z,88.10
2019-06-01T05:38:42.859Z,88.00
2019-06-01T05:41:13.138Z,86.90
2019-06-01T05:43:41.717Z,85.60
2019-06-01T05:46:10.412Z,85.00
2019-06-01T05:48:38.888Z,84.60
2019-06-01T05:51:07.770Z,84.20
2019-06-01T05:53:36.161Z,83.70
2019-06-01T05:56:04.832Z,83.00
2019-06-01T05:58:33.264Z,82.30
2019-06-01T06:01:02.689Z,82.20
2019-06-01T06:03:39.893Z,81.40
2019-06-01T06:06:03.683Z,81.70
2019-06-01T06:08:32.616Z,79.80
2019-06-01T06:11:03.383Z,80.40
2019-06-01T06:13:31.766Z,80.40
2019-06-01T06:16:00.476Z,80.40
2019-06-01T06:18:29.499Z,80.20
2019-06-01T06:20:57.990Z,80.00
2019-06-01T06:23:27.684Z,79.40
2019-06-01T06:25:56.514Z,78.90
2019-06-01T06:28:26.788Z,79.10
2019-06-01T06:30:55.365Z,79.30
2019-06-01T06:33:25.919Z,79.80
2019-06-01T06:35:56.320Z,79.50
2019-06-01T06:38:24.662Z,79.00
2019-06-01T06:40:53.247Z,79.00
2019-06-01T06:43:28.875Z,78.80
2019-06-01T06:45:53.043Z,78.80
2019-06-01T06:48:23.345Z,77.40
2019-06-01T06:50:51.919Z,77.20
2019-06-01T06:53:29.654Z,76.80
2019-06-01T06:55:51.193Z,74.70
2019-06-01T06:58:21.034Z,74.30
2019-06-01T07:00:50.062Z,74.50
2019-06-01T07:03:18.918Z,75.30
2019-06-01T07:05:47.493Z,75.10
2019-06-01T07:08:16.266Z,74.90
2019-06-01T07:10:45.466Z,73.70
2019-06-01T07:13:14.393Z,73.30
2019-06-01T07:15:43.435Z,72.90
2019-06-01T07:20:43.594Z,72.60
2019-06-01T07:23:12.213Z,72.20
2019-06-01T07:25:41.900Z,73.00
2019-06-01T07:28:12.372Z,71.40
2019-06-01T07:30:50.380Z,69.30
2019-06-01T07:33:11.887Z,67.60
2019-06-01T07:35:42.438Z,67.90
2019-06-01T07:38:12.930Z,67.90
2019-06-01T07:40:41.653Z,67.40
2019-06-01T07:43:10.029Z,65.70
2019-06-01T07:45:38.860Z,65.80
2019-06-01T07:48:07.394Z,66.60
2019-06-01T07:50:35.840Z,68.10
2019-06-01T07:53:04.466Z,68.20
2019-06-01T07:55:33.144Z,66.90
2019-06-01T07:58:02.729Z,67.00
2019-06-01T08:00:31.114Z,65.30
2019-06-01T08:02:59.779Z,62.60
2019-06-01T08:05:28.228Z,60.20
2019-06-01T08:07:56.893Z,58.40
2019-06-01T08:10:26.510Z,57.20
2019-06-01T08:12:56.726Z,57.60
2019-06-01T08:15:25.744Z,59.40
2019-06-01T08:17:54.774Z,57.60
2019-06-01T08:20:24.008Z,57.80
2019-06-01T08:22:52.722Z,57.30
2019-06-01T08:25:22.143Z,55.80
2019-06-01T08:27:52.931Z,55.30
2019-06-01T08:30:22.579Z,52.70
2019-06-01T08:32:51.428Z,54.20
2019-06-01T08:35:20.147Z,52.70
2019-06-01T08:37:50.500Z,52.80
2019-06-01T08:40:21.032Z,52.90
2019-06-01T08:42:49.466Z,52.40
2019-06-01T08:45:18.763Z,52.70
2019-06-01T08:47:47.570Z,53.50
2019-06-01T08:50:16.439Z,54.30
2019-06-01T08:52:44.819Z,55.00
2019-06-01T08:55:13.405Z,55.00
2019-06-01T08:57:42.334Z,54.20
2019-06-01T09:00:11.317Z,54.40
2019-06-01T09:02:39.973Z,53.20
2019-06-01T09:05:23.354Z,52.30
2019-06-01T09:07:39.260Z,53.70
2019-06-01T09:10:09.519Z,52.30
2019-06-01T09:12:38.128Z,52.40
2019-06-01T09:15:07.898Z,52.20
2019-06-01T09:17:36.391Z,50.10
2019-06-01T09:20:05.611Z,49.70
2019-06-01T09:22:35.736Z,49.70
2019-06-01T09:25:05.112Z,50.50
2019-06-01T09:27:33.934Z,50.40
2019-06-01T09:30:03.575Z,49.40
2019-06-01T09:32:32.339Z,47.80
2019-06-01T09:35:01.199Z,48.10
2019-06-01T09:37:30.558Z,48.30
2019-06-01T09:40:01.030Z,47.80
2019-06-01T09:42:31.168Z,46.10
2019-06-01T09:44:59.919Z,46.10
2019-06-01T09:47:29.073Z,47.90
2019-06-01T09:49:57.623Z,46.70
2019-06-01T09:52:27.301Z,46.30
2019-06-01T09:54:56.191Z,46.90
2019-06-01T09:57:24.939Z,46.20
2019-06-01T09:59:53.927Z,46.30
2019-06-01T10:02:22.609Z,45.70
2019-06-01T10:04:51.218Z,46.40
2019-06-01T10:07:19.744Z,45.10
2019-06-01T10:09:48.680Z,45.40
2019-06-01T10:12:17.483Z,43.30
2019-06-01T10:14:46.023Z,43.20
2019-06-01T10:17:15.206Z,41.70
2019-06-01T10:19:44.341Z,41.70
2019-06-01T10:22:13.154Z,41.90
2019-06-01T10:24:41.694Z,41.50
2019-06-01T10:27:10.711Z,38.60
2019-06-01T10:29:39.948Z,37.30
2019-06-01T10:32:10.898Z,37.10
2019-06-01T10:34:39.985Z,37.40
2019-06-01T10:37:08.665Z,36.20
2019-06-01T10:39:37.275Z,35.70
2019-06-01T10:42:07.472Z,34.60
2019-06-01T10:44:43.445Z,34.40
2019-06-01T10:47:09.133Z,32.40
2019-06-01T10:49:38.143Z,32.60
2019-06-01T10:52:06.772Z,32.00
2019-06-01T10:54:36.177Z,32.50
2019-06-01T10:57:04.820Z,32.00
2019-06-01T10:59:34.292Z,30.60
2019-06-01T11:02:03.068Z,30.00
2019-06-01T11:04:32.767Z,30.50
2019-06-01T11:07:02.401Z,31.90
2019-06-01T11:09:32.942Z,32.80
2019-06-01T11:12:02.384Z,33.10
2019-06-01T11:14:31.224Z,32.60
2019-06-01T11:17:00.116Z,32.30
2019-06-01T11:19:30.492Z,32.30
2019-06-01T11:21:59.302Z,30.40
2019-06-01T11:24:28.081Z,30.80
2019-06-01T11:26:56.784Z,29.40
2019-06-01T11:29:25.492Z,29.30
2019-06-01T11:31:54.732Z,30.00
2019-06-01T11:34:23.805Z,32.00
2019-06-01T11:37:04.590Z,32.20
2019-06-01T11:39:23.027Z,32.30
2019-06-01T11:41:51.603Z,33.70
2019-06-01T11:44:22.136Z,34.70
2019-06-01T11:46:51.923Z,35.60
2019-06-01T11:49:21.478Z,33.80
2019-06-01T11:51:50.142Z,34.30
2019-06-01T11:54:18.664Z,33.10
2019-06-01T11:56:47.117Z,31.20
2019-06-01T11:59:16.065Z,31.30
2019-06-01T12:01:45.873Z,30.80
2019-06-01T12:04:15.454Z,30.90
2019-06-01T12:06:44.289Z,30.70
2019-06-01T12:09:13.345Z,30.80
2019-06-01T12:11:42.341Z,30.70
2019-06-01T12:14:11.291Z,30.40
2019-06-01T12:16:40.412Z,29.00
2019-06-01T12:19:08.934Z,29.10
2019-06-01T12:21:38.828Z,28.80
2019-06-01T12:24:06.834Z,29.20
2019-06-01T12:26:35.622Z,29.40
2019-06-01T12:29:04.314Z,29.60
2019-06-01T12:31:33.340Z,29.80
2019-06-01T12:34:02.246Z,31.10
2019-06-01T12:36:32.161Z,30.40
2019-06-01T12:39:01.536Z,31.80
2019-06-01T12:41:30.462Z,32.30
2019-06-01T12:44:11.374Z,33.60
2019-06-01T12:46:42.240Z,34.50
2019-06-01T12:49:12.579Z,34.80
2019-06-01T12:51:42.528Z,35.60
2019-06-01T12:54:11.196Z,34.90
2019-06-01T12:56:40.698Z,35.50
2019-06-01T12:59:09.620Z,35.50
2019-06-01T13:01:38.470Z,34.70
2019-06-01T13:04:06.851Z,34.20
2019-06-01T13:06:35.530Z,33.30
2019-06-01T13:09:07.557Z,34.10
2019-06-01T13:11:36.403Z,33.40
2019-06-01T13:14:05.237Z,32.00
2019-06-01T13:16:33.751Z,32.30
2019-06-01T13:19:02.362Z,32.40
2019-06-01T13:21:31.037Z,33.10
2019-06-01T13:23:59.717Z,32.80
2019-06-01T13:26:28.451Z,33.50
2019-06-01T13:28:57.222Z,33.40
2019-06-01T13:31:25.580Z,32.00
2019-06-01T13:33:54.172Z,32.20
2019-06-01T13:36:22.852Z,32.20
2019-06-01T13:38:53.015Z,32.60
2019-06-01T13:41:21.779Z,31.90
2019-06-01T13:43:51.434Z,31.80
2019-06-01T13:46:20.021Z,31.70
2019-06-01T13:48:50.258Z,32.50
2019-06-01T13:51:20.799Z,32.70
2019-06-01T13:53:50.450Z,33.50
2019-06-01T13:56:19.413Z,32.90
2019-06-01T13:58:48.247Z,33.20
2019-06-01T14:01:16.900Z,32.40
2019-06-01T14:03:45.464Z,33.10
2019-06-01T14:06:14.486Z,33.40
2019-06-01T14:08:43.460Z,33.30
2019-06-01T14:11:12.455Z,33.90
2019-06-01T14:13:40.873Z,33.40
2019-06-01T14:16:09.518Z,33.90
2019-06-01T14:18:38.503Z,33.40
2019-06-01T14:21:07.217Z,33.00
2019-06-01T14:23:35.886Z,32.70
2019-06-01T14:26:05.178Z,33.10
2019-06-01T14:28:33.852Z,33.00
2019-06-01T14:31:02.590Z,32.00
2019-06-01T14:33:31.277Z,31.90
2019-06-01T14:35:59.615Z,32.70
2019-06-01T14:38:45.636Z,32.30
2019-06-01T14:41:00.087Z,32.50
2019-06-01T14:43:29.077Z,32.90
2019-06-01T14:45:58.088Z,33.40
2019-06-01T14:48:26.751Z,33.20
2019-06-01T14:50:57.919Z,33.00
2019-06-01T14:53:28.427Z,32.40
2019-06-01T14:55:57.989Z,32.40
2019-06-01T14:58:27.100Z,31.60
2019-06-01T15:00:56.628Z,31.50
2019-06-01T15:03:25.156Z,31.80
2019-06-01T15:05:54.397Z,32.70
2019-06-01T15:08:23.127Z,32.90
2019-06-01T15:10:53.420Z,33.20
2019-06-01T15:13:22.810Z,33.40
2019-06-01T15:15:53.412Z,32.90
2019-06-01T15:18:21.619Z,33.30
2019-06-01T15:20:50.109Z,33.90
2019-06-01T15:23:19.099Z,33.80
2019-06-01T15:25:47.799Z,33.10
2019-06-01T15:28:16.637Z,33.70
2019-06-01T15:30:46.223Z,33.00
2019-06-01T15:33:14.873Z,33.00
2019-06-01T15:35:43.208Z,32.60
2019-06-01T15:38:11.856Z,33.00
2019-06-01T15:40:40.276Z,33.10
2019-06-01T15:43:10.430Z,33.50
2019-06-01T15:45:41.254Z,33.30
2019-06-01T15:48:09.699Z,32.90
2019-06-01T15:50:38.700Z,32.90
2019-06-01T15:53:09.329Z,33.00
2019-06-01T15:55:39.667Z,33.10
2019-06-01T15:58:08.111Z,33.20
2019-06-01T16:00:36.816Z,32.60
2019-06-01T16:03:05.459Z,32.50
2019-06-01T16:05:33.842Z,32.70
2019-06-01T16:08:03.684Z,32.80
2019-06-01T16:10:32.110Z,33.40
2019-06-01T16:13:04.303Z,33.10
2019-06-01T16:15:33.189Z,32.80
2019-06-01T16:18:02.424Z,33.00
2019-06-01T16:20:30.882Z,32.90
2019-06-01T16:23:00.303Z,33.00
2019-06-01T16:25:30.246Z,32.90
2019-06-01T16:27:58.830Z,33.10
2019-06-01T16:30:27.464Z,33.40
2019-06-01T16:32:56.468Z,33.50
2019-06-01T16:35:25.207Z,33.40
2019-06-01T16:37:54.928Z,33.70
2019-06-01T16:40:23.535Z,33.60
2019-06-01T16:42:51.925Z,33.30
2019-06-01T16:45:21.020Z,34.00
2019-06-01T16:47:49.847Z,33.00
2019-06-01T16:50:18.216Z,33.40
2019-06-01T16:52:46.683Z,34.10
2019-06-01T16:55:17.111Z,34.20
2019-06-01T16:57:47.970Z,33.80
2019-06-01T17:00:18.102Z,33.60
2019-06-01T17:02:46.433Z,33.90
2019-06-01T17:05:16.281Z,34.50
2019-06-01T17:07:45.207Z,35.20
2019-06-01T17:10:25.495Z,34.70
2019-06-01T17:12:45.727Z,35.20
2019-06-01T17:15:15.465Z,34.80
2019-06-01T17:17:43.949Z,34.60
2019-06-01T17:20:46.192Z,34.40
2019-06-01T17:23:27.448Z,35.10
2019-06-01T17:25:45.233Z,34.90
2019-06-01T17:28:13.897Z,35.30
2019-06-01T17:30:42.786Z,36.10
2019-06-01T17:33:11.336Z,35.20
2019-06-01T17:35:40.379Z,35.30
2019-06-01T17:38:09.271Z,35.50
2019-06-01T17:40:42.296Z,35.60
2019-06-01T17:43:08.929Z,35.80
2019-06-01T17:45:38.916Z,35.80
2019-06-01T17:48:23.470Z,35.90
2019-06-01T17:50:38.594Z,36.20
2019-06-01T17:53:08.701Z,36.50
2019-06-01T17:55:39.824Z,36.50
2019-06-01T17:58:11.770Z,37.50
2019-06-01T18:00:41.057Z,36.70
2019-06-01T18:03:10.246Z,37.20
2019-06-01T18:05:39.479Z,37.30
2019-06-01T18:08:08.261Z,37.60
2019-06-01T18:10:52.654Z,38.00
2019-06-01T18:13:10.165Z,38.10
2019-06-01T18:15:39.315Z,38.00
2019-06-01T18:18:08.774Z,38.90
2019-06-01T18:20:37.997Z,38.30
2019-06-01T18:23:08.330Z,38.70
2019-06-01T18:25:37.785Z,38.90
2019-06-01T18:28:13.225Z,38.90
2019-06-01T18:30:38.205Z,38.90
2019-06-01T18:33:07.233Z,39.10
2019-06-01T18:35:35.887Z,39.60
2019-06-01T18:38:05.773Z,39.80
2019-06-01T18:40:35.299Z,39.70
2019-06-01T18:43:10.066Z,39.90
2019-06-01T18:45:40.252Z,39.90
2019-06-01T18:48:10.179Z,40.10
2019-06-01T18:50:39.183Z,40.40
2019-06-01T18:53:08.185Z,40.60
2019-06-01T18:55:38.067Z,40.60
2019-06-01T18:58:10.257Z,40.80
2019-06-01T19:00:39.932Z,40.90
2019-06-01T19:03:09.268Z,41.60
2019-06-01T19:05:37.694Z,41.40
2019-06-01T19:08:07.201Z,41.50
2019-06-01T19:10:35.992Z,41.60
2019-06-01T19:13:05.650Z,41.80
2019-06-01T19:15:36.422Z,42.10
2019-06-01T19:18:06.335Z,42.50
2019-06-01T19:20:35.043Z,42.80
2019-06-01T19:23:04.069Z,43.10
2019-06-01T19:25:32.622Z,43.20
2019-06-01T19:28:02.903Z,43.20
2019-06-01T19:30:42.657Z,43.40
2019-06-01T19:33:15.342Z,44.30
2019-06-01T19:35:42.277Z,44.30
2019-06-01T19:38:11.428Z,44.30
2019-06-01T19:40:41.230Z,45.30
2019-06-01T19:43:11.514Z,44.70
2019-06-01T19:45:41.355Z,45.00
2019-06-01T19:48:11.875Z,45.30
2019-06-01T19:50:41.005Z,45.40
2019-06-01T19:53:10.608Z,45.50
2019-06-01T19:55:39.137Z,45.90
2019-06-01T19:58:10.012Z,46.10
2019-06-01T20:00:40.676Z,46.10
2019-06-01T20:03:10.265Z,46.40
2019-06-01T20:05:38.997Z,46.70
2019-06-01T20:08:07.634Z,46.90
2019-06-01T20:10:36.344Z,47.10
2019-06-01T20:13:05.050Z,47.20
2019-06-01T20:15:33.455Z,47.40
2019-06-01T20:18:02.615Z,47.70
2019-06-01T20:20:31.485Z,47.90
2019-06-01T20:23:00.110Z,47.80
2019-06-01T20:25:29.450Z,48.00
2019-06-01T20:27:58.092Z,47.90
2019-06-01T20:30:26.502Z,48.30
2019-06-01T20:32:55.152Z,48.40
2019-06-01T20:35:23.532Z,48.90
2019-06-01T20:37:52.537Z,49.30
2019-06-01T20:40:20.955Z,50.00
2019-06-01T20:42:49.924Z,49.50
2019-06-01T20:45:20.868Z,49.70
2019-06-01T20:47:50.353Z,50.10
2019-06-01T20:50:19.096Z,51.10
2019-06-01T20:52:47.712Z,50.80
2019-06-01T20:55:21.132Z,51.60
2019-06-01T20:57:49.959Z,51.60
2019-06-01T21:00:21.669Z,51.70
2019-06-01T21:02:51.985Z,52.70
2019-06-01T21:05:21.995Z,52.10
2019-06-01T21:07:50.684Z,52.30
2019-06-01T21:10:20.462Z,52.60
2019-06-01T21:12:49.491Z,52.80
2019-06-01T21:15:19.272Z,53.60
2019-06-01T21:17:50.182Z,53.90
2019-06-01T21:20:25.388Z,54.10
2019-06-01T21:22:49.825Z,54.30
2019-06-01T21:25:18.857Z,54.30
2019-06-01T21:27:47.764Z,54.10
2019-06-01T21:30:18.325Z,54.10
2019-06-01T21:32:46.978Z,54.20
2019-06-01T21:35:17.359Z,54.60
2019-06-01T21:37:45.994Z,55.10
2019-06-01T21:40:15.330Z,55.20
2019-06-01T21:43:00.459Z,55.30
2019-06-01T21:45:15.529Z,55.30
2019-06-01T21:47:44.319Z,55.20
2019-06-01T21:50:16.524Z,56.20
2019-06-01T21:52:46.643Z,56.50
2019-06-01T21:55:16.003Z,57.00
2019-06-01T21:57:45.011Z,57.30
2019-06-01T22:00:24.654Z,57.70
2019-06-01T22:02:55.193Z,57.80
2019-06-01T22:05:25.275Z,58.40
2019-06-01T22:07:54.093Z,58.30
2019-06-01T22:10:23.245Z,58.60
2019-06-01T22:12:51.793Z,58.30
2019-06-01T22:15:21.550Z,58.30
2019-06-01T22:17:50.082Z,58.50
2019-06-01T22:20:19.811Z,58.80
2019-06-01T22:22:48.386Z,58.90
2019-06-01T22:25:17.774Z,58.80
2019-06-01T22:27:46.965Z,59.00
2019-06-01T22:30:18.320Z,59.20
2019-06-01T22:32:47.436Z,59.30
2019-06-01T22:35:16.439Z,59.30
2019-06-01T22:37:45.158Z,59.50
2019-06-01T22:40:14.204Z,59.60
2019-06-01T22:42:43.105Z,60.00
2019-06-01T22:45:12.149Z,59.60
2019-06-01T22:47:40.810Z,60.70
2019-06-01T22:50:10.709Z,61.20
2019-06-01T22:52:40.277Z,61.70
2019-06-01T22:55:09.499Z,62.20
2019-06-01T22:57:38.249Z,62.90
2019-06-01T23:00:07.590Z,63.00
2019-06-01T23:02:36.582Z,63.80
2019-06-01T23:05:07.357Z,64.40
2019-06-01T23:07:36.394Z,64.80
2019-06-01T23:10:05.383Z,65.60
2019-06-01T23:12:34.109Z,65.80
2019-06-01T23:15:02.777Z,66.30
2019-06-01T23:17:32.019Z,67.20
2019-06-01T23:20:00.780Z,67.20
2019-06-01T23:22:30.736Z,67.50
2019-06-01T23:24:59.367Z,67.70
2019-06-01T23:27:28.323Z,67.70
2019-06-01T23:29:57.040Z,67.20
2019-06-01T23:32:26.505Z,67.50
2019-06-01T23:34:54.991Z,67.60
2019-06-01T23:37:24.645Z,68.10
2019-06-01T23:39:53.344Z,68.60
2019-06-01T23:42:22.545Z,68.40
2019-06-01T23:44:51.978Z,68.60
2019-06-01T23:47:20.608Z,69.20
2019-06-01T23:49:48.863Z,69.00
2019-06-01T23:52:17.489Z,69.30
2019-06-01T23:54:46.686Z,69.10
2019-06-01T23:57:15.170Z,69.60
2019-06-01T23:59:43.766Z,69.50
